Time;durP1;ratioP1;P1;durP2;ratioP2;P2;SDS_P1;SDS_P2;PMS_P1;PMS_P2;Temp;Humidity;BMP_temperature;BMP_pressure;BME280_temperature;BME280_humidity;BME280_pressure;Samples;Min_cycle;Max_cycle;Signal;HPM_P1;HPM_P2
2023/10/23 00:00:06;;;;;;;0.52;0.52;;;;;;;6.81;100.00;95671.13;1015198;29;20028;-74
2023/10/23 00:00:37;;;;;;;3.88;0.93;;;;;;;6.85;100.00;95675.63;1015278;29;20234;-74
2023/10/23 00:01:07;;;;;;;4.07;1.25;;;;;;;6.79;100.00;95666.13;1011557;29;20036;-75
2023/10/23 00:01:38;;;;;;;0.65;0.65;;;;;;;6.80;100.00;95667.72;1019342;29;20031;-72
2023/10/23 00:02:09;;;;;;;1.45;0.88;;;;;;;6.87;100.00;95674.56;1015539;29;20115;-74
2023/10/23 00:02:39;;;;;;;3.85;0.68;;;;;;;6.85;100.00;95673.00;1015364;29;20319;-74
2023/10/23 00:03:10;;;;;;;2.10;1.15;;;;;;;6.89;100.00;95682.97;1022409;29;20038;-75
2023/10/23 00:03:43;;;;;;;1.95;1.20;;;;;;;6.87;100.00;95679.78;1018992;29;20505;-74
2023/10/23 00:04:13;;;;;;;0.70;0.65;;;;;;;6.89;100.00;95682.97;1019210;29;20114;-73
2023/10/23 00:04:44;;;;;;;0.63;0.45;;;;;;;6.85;100.00;95678.22;1019357;29;20299;-73
2023/10/23 00:05:14;;;;;;;0.80;0.80;;;;;;;6.90;100.00;95684.53;1023610;28;20027;-73
2023/10/23 00:05:44;;;;;;;2.35;0.32;;;;;;;6.91;100.00;95686.09;1027223;28;20015;-75
2023/10/23 00:06:15;;;;;;;1.17;0.90;;;;;;;6.89;100.00;95682.97;1023071;29;20034;-72
2023/10/23 00:06:45;;;;;;;2.15;1.02;;;;;;;6.85;100.00;95677.44;1023081;29;20086;-75
2023/10/23 00:07:16;;;;;;;0.73;0.73;;;;;;;6.91;100.00;95686.91;1023151;29;20430;-72
2023/10/23 00:07:47;;;;;;;0.73;0.50;;;;;;;6.87;100.00;95685.00;1019326;29;20542;-75
2023/10/23 00:08:17;;;;;;;0.60;0.55;;;;;;;6.58;100.00;95640.81;1015102;29;20028;-75
2023/10/23 00:08:48;;;;;;;18.30;1.65;;;;;;;6.89;100.00;95688.97;1015267;29;20079;-76
2023/10/23 00:09:18;;;;;;;1.52;1.38;;;;;;;6.89;100.00;95688.19;1019388;29;20530;-74
2023/10/23 00:09:49;;;;;;;0.63;0.63;;;;;;;6.90;100.00;95685.31;1022487;28;20019;-74
2023/10/23 00:10:19;;;;;;;2.30;1.02;;;;;;;6.91;100.00;95686.91;1027024;28;20022;-74
2023/10/23 00:10:50;;;;;;;0.30;0.30;;;;;;;6.91;100.00;95686.09;1018962;29;20624;-74
2023/10/23 00:11:22;;;;;;;0.40;0.15;;;;;;;6.94;100.00;95690.84;1019052;29;20372;-72
2023/10/23 00:11:52;;;;;;;0.45;0.45;;;;;;;6.94;100.00;95691.66;1015494;29;20651;-73
2023/10/23 00:12:23;;;;;;;0.75;0.75;;;;;;;6.98;100.00;95689.34;1019811;28;20276;-75
2023/10/23 00:12:53;;;;;;;1.20;0.73;;;;;;;6.99;100.00;95690.91;1019081;29;20023;-75
2023/10/23 00:13:24;;;;;;;0.20;0.20;;;;;;;7.03;100.00;95689.41;1015113;29;20155;-73
2023/10/23 00:13:54;;;;;;;0.40;0.40;;;;;;;6.98;100.00;95682.31;1015345;29;20476;-74
2023/10/23 00:14:25;;;;;;;0.28;0.28;;;;;;;6.98;100.00;95687.53;1015450;29;20083;-74
2023/10/23 00:14:55;;;;;;;0.22;0.22;;;;;;;7.05;100.00;95689.97;1015175;29;20020;-75
2023/10/23 00:15:26;;;;;;;0.15;0.15;;;;;;;7.07;100.00;95696.50;1019252;29;20030;-74
2023/10/23 00:15:56;;;;;;;0.35;0.35;;;;;;;7.09;100.00;95693.66;1019223;29;20095;-76
2023/10/23 00:16:26;;;;;;;0.10;0.10;;;;;;;7.10;100.00;95692.63;1019129;29;20523;-75
2023/10/23 00:16:57;;;;;;;1.17;0.75;;;;;;;7.10;100.00;95690.00;1023060;29;20479;-74
2023/10/23 00:17:27;;;;;;;0.22;0.22;;;;;;;7.14;100.00;95696.31;1023041;28;20023;-73
2023/10/23 00:17:58;;;;;;;0.28;0.28;;;;;;;7.17;100.00;95695.84;1019182;29;20039;-73
2023/10/23 00:18:28;;;;;;;0.10;0.10;;;;;;;7.18;100.00;95692.22;1018982;29;20039;-75
2023/10/23 00:18:59;;;;;;;0.10;0.10;;;;;;;7.16;100.00;95683.84;1019081;29;20411;-74
2023/10/23 00:19:29;;;;;;;0.47;0.47;;;;;;;7.19;100.00;95691.19;1022864;29;20103;-74
2023/10/23 00:20:02;;;;;;;0.40;0.40;;;;;;;7.25;100.00;95692.03;1018533;29;20042;-74
2023/10/23 00:20:32;;;;;;;0.30;0.20;;;;;;;7.21;100.00;95688.31;1019724;29;20336;-73
2023/10/23 00:21:03;;;;;;;0.40;0.40;;;;;;;7.27;100.00;95697.78;1023222;28;20786;-72
2023/10/23 00:21:33;;;;;;;0.75;0.75;;;;;;;7.22;100.00;95687.31;1023307;28;20038;-75
2023/10/23 00:22:03;;;;;;;0.10;0.10;;;;;;;7.25;100.00;95692.03;1023040;29;20031;-73
2023/10/23 00:22:34;;;;;;;0.45;0.45;;;;;;;7.29;100.00;95696.53;1015230;29;20036;-73
2023/10/23 00:23:04;;;;;;;0.70;0.70;;;;;;;7.30;100.00;95700.72;1019044;29;20055;-73
2023/10/23 00:23:35;;;;;;;0.20;0.20;;;;;;;7.32;100.00;95701.25;1019025;29;20043;-75
2023/10/23 00:24:05;;;;;;;0.38;0.38;;;;;;;7.31;100.00;95704.91;1019139;29;20031;-75
2023/10/23 00:24:36;;;;;;;0.35;0.35;;;;;;;7.31;100.00;95699.69;1023458;28;20034;-75
2023/10/23 00:25:07;;;;;;;0.35;0.28;;;;;;;7.31;100.00;95702.31;1033118;28;20030;-74
2023/10/23 00:25:37;;;;;;;0.22;0.22;;;;;;;7.31;100.00;95702.31;1030890;28;20030;-74
2023/10/23 00:26:08;;;;;;;0.20;0.20;;;;;;;7.28;100.00;95697.56;1027198;28;20034;-74
2023/10/23 00:26:38;;;;;;;0.17;0.17;;;;;;;7.32;100.00;95703.09;1018859;29;20142;-75
2023/10/23 00:27:09;;;;;;;0.43;0.43;;;;;;;7.27;100.00;95695.19;1019170;29;20028;-74
2023/10/23 00:27:39;;;;;;;2.42;0.88;;;;;;;7.32;100.00;95706.50;1019068;29;20023;-73
2023/10/23 00:28:09;;;;;;;0.57;0.57;;;;;;;7.30;100.00;95695.50;1015216;29;20037;-74
2023/10/23 00:28:40;;;;;;;0.47;0.47;;;;;;;7.30;100.00;95700.72;1018880;29;20036;-74
2023/10/23 00:29:10;;;;;;;0.35;0.35;;;;;;;7.30;100.00;95705.94;1015170;29;20524;-73
2023/10/23 00:29:41;;;;;;;0.50;0.50;;;;;;;7.23;100.00;95689.66;1014564;29;20060;-73
2023/10/23 00:30:11;;;;;;;0.20;0.10;;;;;;;7.26;100.00;95689.19;1018890;29;20250;-75
2023/10/23 00:30:43;;;;;;;0.20;0.20;;;;;;;7.27;100.00;95701.19;1015371;29;20031;-73
2023/10/23 00:31:14;;;;;;;0.38;0.38;;;;;;;7.26;100.00;95691.78;1023165;29;20023;-74
2023/10/23 00:31:44;;;;;;;0.40;0.40;;;;;;;7.28;100.00;95694.97;1022972;28;20278;-74
2023/10/23 00:32:15;;;;;;;1.00;0.73;;;;;;;7.24;100.00;95686.03;1023077;29;20046;-72
2023/10/23 00:32:45;;;;;;;0.15;0.15;;;;;;;7.27;100.00;95695.97;1023113;29;20035;-74
2023/10/23 00:33:15;;;;;;;0.28;0.28;;;;;;;7.28;100.00;95697.56;1023168;29;20031;-75
2023/10/23 00:33:46;;;;;;;0.40;0.40;;;;;;;7.28;100.00;95696.78;1022843;28;20042;-75
2023/10/23 00:34:16;;;;;;;1.30;0.75;;;;;;;7.26;100.00;95696.22;1027190;28;20035;-73
2023/10/23 00:34:47;;;;;;;0.70;0.70;;;;;;;7.22;100.00;95693.31;1023045;29;20732;-72
2023/10/23 00:35:17;;;;;;;0.30;0.30;;;;;;;7.26;100.00;95696.22;1022980;29;20038;-75
2023/10/23 00:35:48;;;;;;;1.42;1.33;;;;;;;7.25;100.00;95705.09;1019196;29;20082;-75
2023/10/23 00:36:18;;;;;;;0.15;0.15;;;;;;;7.24;100.00;95700.88;1023007;28;20039;-74
2023/10/23 00:36:49;;;;;;;1.48;0.52;;;;;;;7.24;100.00;95706.09;1022996;29;20478;-74
2023/10/23 00:37:19;;;;;;;0.20;0.20;;;;;;;7.19;100.00;95687.78;1023109;28;20045;-73
2023/10/23 00:37:49;;;;;;;0.55;0.32;;;;;;;7.15;100.00;95687.50;1022999;29;20145;-73
2023/10/23 00:38:20;;;;;;;1.05;0.40;;;;;;;7.20;100.00;95703.19;1022953;28;20031;-75
2023/10/23 00:38:51;;;;;;;0.20;0.20;;;;;;;7.16;100.00;95691.66;1022776;29;20550;-74
2023/10/23 00:39:21;;;;;;;0.63;0.63;;;;;;;7.15;100.00;95697.91;1015277;29;20040;-74
2023/10/23 00:39:51;;;;;;;2.90;0.57;;;;;;;7.18;100.00;95707.88;1018568;29;20384;-75
2023/10/23 00:40:22;;;;;;;2.88;0.32;;;;;;;7.18;100.00;95701.88;1018833;29;20055;-74
2023/10/23 00:40:52;;;;;;;0.10;0.10;;;;;;;7.19;100.00;95708.66;1015305;29;20687;-74
2023/10/23 00:41:23;;;;;;;0.57;0.57;;;;;;;7.17;100.00;95706.28;1019256;29;20035;-75
2023/10/23 00:41:53;;;;;;;0.32;0.32;;;;;;;7.16;100.00;95709.94;1022911;29;20023;-74
2023/10/23 00:42:24;;;;;;;0.30;0.30;;;;;;;7.16;100.00;95701.31;1026934;28;20031;-74
2023/10/23 00:42:55;;;;;;;1.25;1.15;;;;;;;7.15;100.00;95703.13;1027167;28;20777;-73
2023/10/23 00:43:25;;;;;;;0.90;0.90;;;;;;;7.15;100.00;95707.56;1026922;28;20059;-74
2023/10/23 00:43:56;;;;;;;0.20;0.20;;;;;;;7.10;100.00;95695.22;1019977;29;20314;-73
2023/10/23 00:44:27;;;;;;;0.40;0.30;;;;;;;7.13;100.00;95705.19;1014945;29;20032;-74
2023/10/23 00:44:58;;;;;;;0.95;0.95;;;;;;;7.12;100.00;95703.63;1014823;29;20040;-73
2023/10/23 00:45:28;;;;;;;0.13;0.13;;;;;;;7.05;100.00;95693.34;1010962;29;20272;-75
2023/10/23 00:45:59;;;;;;;0.38;0.38;;;;;;;7.07;100.00;95695.72;1019147;29;20032;-73
2023/10/23 00:46:30;;;;;;;0.75;0.75;;;;;;;7.09;100.00;95698.88;1026912;28;20394;-71
2023/10/23 00:47:01;;;;;;;0.35;0.35;;;;;;;7.06;100.00;95686.31;1026751;28;20744;-74
2023/10/23 00:47:32;;;;;;;0.20;0.20;;;;;;;7.09;100.00;95697.06;1022572;29;20357;-74
2023/10/23 00:48:02;;;;;;;0.32;0.30;;;;;;;7.07;100.00;95685.28;1015326;29;20043;-75
2023/10/23 00:48:33;;;;;;;0.20;0.20;;;;;;;7.07;100.00;95695.72;1015040;29;20032;-73
2023/10/23 00:49:03;;;;;;;0.20;0.20;;;;;;;7.04;100.00;95686.56;1011134;29;20020;-73
2023/10/23 00:49:34;;;;;;;0.30;0.30;;;;;;;7.06;100.00;95687.09;1014647;29;20036;-72
2023/10/23 00:50:04;;;;;;;0.80;0.80;;;;;;;7.07;100.00;95695.72;1018798;29;20818;-74
2023/10/23 00:50:35;;;;;;;0.22;0.22;;;;;;;7.02;100.00;95677.41;1018828;29;20036;-71
2023/10/23 00:51:05;;;;;;;0.80;0.63;;;;;;;7.07;100.00;95690.50;1022900;29;20384;-72
2023/10/23 00:51:36;;;;;;;0.10;0.10;;;;;;;7.05;100.00;95692.56;1022922;29;20075;-72
2023/10/23 00:52:06;;;;;;;0.45;0.45;;;;;;;7.04;100.00;95689.19;1023058;29;20742;-73
2023/10/23 00:52:37;;;;;;;0.50;0.50;;;;;;;7.05;100.00;95687.34;1022889;28;20027;-72
2023/10/23 00:53:07;;;;;;;1.05;0.98;;;;;;;7.04;100.00;95688.38;1019021;29;20027;-74
2023/10/23 00:53:39;;;;;;;1.08;0.65;;;;;;;7.02;100.00;95693.06;1022892;29;20521;-74
2023/10/23 00:54:09;;;;;;;1.38;0.80;;;;;;;7.00;100.00;95685.44;1018789;29;20132;-73
2023/10/23 00:54:40;;;;;;;0.35;0.35;;;;;;;7.02;100.00;95680.78;1019521;28;20263;-72
2023/10/23 00:55:10;;;;;;;0.60;0.60;;;;;;;6.95;100.00;95674.97;1023199;28;20030;-73
2023/10/23 00:55:41;;;;;;;0.50;0.50;;;;;;;6.97;100.00;95679.94;1014982;29;20145;-72
2023/10/23 00:56:11;;;;;;;1.23;0.70;;;;;;;7.00;100.00;95685.44;1019164;29;20028;-73
2023/10/23 00:56:41;;;;;;;0.35;0.35;;;;;;;7.02;100.00;95682.63;1018940;29;20024;-73
2023/10/23 00:57:12;;;;;;;1.08;0.65;;;;;;;7.02;100.00;95683.41;1018926;29;20100;-73
2023/10/23 00:57:43;;;;;;;0.17;0.17;;;;;;;7.03;100.00;95684.19;1014929;29;20032;-74
2023/10/23 00:58:13;;;;;;;0.80;0.80;;;;;;;7.03;100.00;95689.41;1015441;29;20028;-73
2023/10/23 00:58:44;;;;;;;0.30;0.30;;;;;;;6.97;100.00;95674.72;1022990;28;20030;-73
2023/10/23 00:59:14;;;;;;;0.30;0.30;;;;;;;7.01;100.00;95686.25;1022974;29;20026;-73
2023/10/23 00:59:45;;;;;;;0.35;0.17;;;;;;;6.96;100.00;95678.34;1014944;29;20028;-72
2023/10/23 01:00:15;;;;;;;0.20;0.20;;;;;;;7.00;100.00;95687.28;1018899;29;20024;-73
2023/10/23 01:00:47;;;;;;;3.20;1.15;;;;;;;6.98;100.00;95686.75;1018861;29;20023;-73
2023/10/23 01:01:17;;;;;;;0.57;0.57;;;;;;;6.96;100.00;95689.56;1018729;29;20024;-75
2023/10/23 01:01:48;;;;;;;2.38;1.35;;;;;;;6.97;100.00;95685.94;1015061;29;20798;-71
2023/10/23 01:02:18;;;;;;;0.35;0.30;;;;;;;6.97;100.00;95690.34;1015022;29;20035;-73
2023/10/23 01:02:49;;;;;;;0.47;0.47;;;;;;;6.97;100.00;95682.53;1023414;28;20372;-75
2023/10/23 01:03:20;;;;;;;0.68;0.50;;;;;;;6.95;100.00;95688.00;1022958;28;20034;-74
2023/10/23 01:03:50;;;;;;;0.28;0.17;;;;;;;6.91;100.00;95675.66;1024843;28;20024;-73
2023/10/23 01:04:20;;;;;;;0.57;0.52;;;;;;;6.94;100.00;95680.41;1022970;29;20034;-74
2023/10/23 01:04:51;;;;;;;0.20;0.20;;;;;;;6.88;100.00;95671.75;1022846;28;20550;-73
2023/10/23 01:05:22;;;;;;;0.10;0.10;;;;;;;6.89;100.00;95678.53;1030822;28;20034;-72
2023/10/23 01:05:53;;;;;;;0.30;0.30;;;;;;;6.89;100.00;95675.91;1027009;28;20133;-73
2023/10/23 01:06:23;;;;;;;3.08;0.55;;;;;;;6.89;100.00;95675.13;1026774;28;20662;-75
2023/10/23 01:06:53;;;;;;;0.10;0.10;;;;;;;6.92;100.00;95687.69;1018910;29;20031;-73
2023/10/23 01:07:24;;;;;;;0.08;0.08;;;;;;;6.91;100.00;95680.88;1018867;29;20043;-72
2023/10/23 01:07:55;;;;;;;0.57;0.57;;;;;;;6.85;100.00;95673.00;1015350;29;20092;-74
2023/10/23 01:08:25;;;;;;;0.20;0.20;;;;;;;6.89;100.00;95688.19;1018850;29;20046;-74
2023/10/23 01:08:56;;;;;;;0.52;0.52;;;;;;;6.87;100.00;95685.78;1026789;28;20022;-73
2023/10/23 01:09:27;;;;;;;0.08;0.08;;;;;;;6.90;100.00;95689.75;1026845;28;20081;-73
2023/10/23 01:09:57;;;;;;;0.85;0.82;;;;;;;6.89;100.00;95690.78;1022388;29;20031;-74
2023/10/23 01:10:27;;;;;;;1.20;0.63;;;;;;;6.75;100.00;95672.88;1015017;29;20036;-73
2023/10/23 01:10:58;;;;;;;1.60;0.88;;;;;;;6.85;100.00;95698.31;1019004;28;20635;-74
2023/10/23 01:11:29;;;;;;;0.20;0.20;;;;;;;6.83;100.00;95689.91;1018840;29;20762;-73
2023/10/23 01:11:59;;;;;;;0.10;0.10;;;;;;;6.82;100.00;95699.56;1022915;28;20061;-73
2023/10/23 01:12:30;;;;;;;0.65;0.65;;;;;;;6.81;100.00;95705.03;1018817;29;20040;-73
2023/10/23 01:13:04;;;;;;;1.65;0.95;;;;;;;6.79;100.00;95700.03;1015498;28;20029;-73
2023/10/23 01:13:34;;;;;;;0.60;0.55;;;;;;;6.76;100.00;95700.50;1018966;29;20031;-74
2023/10/23 01:14:05;;;;;;;0.20;0.20;;;;;;;6.75;100.00;95704.16;1019914;28;20339;-74
2023/10/23 01:14:35;;;;;;;1.45;0.13;;;;;;;6.72;100.00;95696.81;1026968;28;20043;-74
2023/10/23 01:15:06;;;;;;;0.80;0.80;;;;;;;6.71;100.00;95702.28;1023250;28;20071;-74
2023/10/23 01:15:37;;;;;;;0.00;0.00;;;;;;;6.72;100.00;95698.63;1022822;29;20593;-73
2023/10/23 01:16:07;;;;;;;1.02;0.93;;;;;;;6.74;100.00;95701.78;1026591;28;20275;-73
2023/10/23 01:16:37;;;;;;;0.63;0.63;;;;;;;6.74;100.00;95707.00;1026937;28;20031;-74
2023/10/23 01:17:08;;;;;;;2.40;1.27;;;;;;;6.71;100.00;95697.84;1026917;28;20677;-73
2023/10/23 01:17:38;;;;;;;0.10;0.10;;;;;;;6.71;100.00;95702.28;1026835;28;20458;-73
2023/10/23 01:18:09;;;;;;;0.10;0.10;;;;;;;6.69;100.00;95701.72;1030711;28;20433;-73
2023/10/23 01:18:40;;;;;;;0.43;0.43;;;;;;;6.62;100.00;95694.06;1031097;28;20026;-72
2023/10/23 01:19:10;;;;;;;0.40;0.40;;;;;;;6.67;100.00;95703.75;1022809;28;20034;-73
2023/10/23 01:19:40;;;;;;;0.25;0.25;;;;;;;6.66;100.00;95704.78;1022433;29;20035;-74
2023/10/23 01:20:11;;;;;;;0.20;0.20;;;;;;;6.65;100.00;95698.78;1014910;29;20473;-73
2023/10/23 01:20:42;;;;;;;0.80;0.63;;;;;;;6.66;100.00;95710.78;1018866;29;20028;-73
2023/10/23 01:21:12;;;;;;;0.65;0.65;;;;;;;6.66;100.00;95704.78;1019023;29;20027;-72
2023/10/23 01:21:43;;;;;;;2.65;0.43;;;;;;;6.63;100.00;95698.22;1010917;29;20024;-76
2023/10/23 01:22:13;;;;;;;0.20;0.20;;;;;;;6.61;100.00;95705.53;1015097;29;20039;-73
2023/10/23 01:22:44;;;;;;;0.00;0.00;;;;;;;6.55;100.00;95698.63;1023123;28;20027;-75
2023/10/23 01:23:14;;;;;;;0.10;0.10;;;;;;;6.54;100.00;95697.84;1022991;28;20029;-73
2023/10/23 01:23:45;;;;;;;0.25;0.25;;;;;;;6.57;100.00;95696.56;1034928;28;20493;-74
2023/10/23 01:24:15;;;;;;;0.05;0.05;;;;;;;6.56;100.00;95698.38;1027014;28;20107;-74
2023/10/23 01:24:45;;;;;;;0.10;0.10;;;;;;;6.51;100.00;95693.13;1023031;29;20027;-73
2023/10/23 01:25:16;;;;;;;0.28;0.28;;;;;;;6.51;100.00;95698.31;1023011;29;20039;-73
2023/10/23 01:25:46;;;;;;;0.82;0.82;;;;;;;6.57;100.00;95702.59;1022953;28;20067;-73
2023/10/23 01:26:17;;;;;;;0.30;0.30;;;;;;;6.56;100.00;95705.44;1023164;28;20507;-74
2023/10/23 01:26:47;;;;;;;0.63;0.63;;;;;;;6.57;100.00;95707.81;1026602;28;20489;-73
2023/10/23 01:27:18;;;;;;;0.00;0.00;;;;;;;6.50;100.00;95695.94;1022971;28;20117;-74
2023/10/23 01:27:48;;;;;;;0.30;0.30;;;;;;;6.53;100.00;95695.47;1022960;28;20066;-73
2023/10/23 01:28:19;;;;;;;0.20;0.20;;;;;;;6.53;100.00;95695.47;1014761;29;20384;-74
2023/10/23 01:28:49;;;;;;;0.20;0.20;;;;;;;6.55;100.00;95702.03;1018889;29;20106;-73
2023/10/23 01:29:20;;;;;;;0.05;0.05;;;;;;;6.49;100.00;95689.16;1026841;28;20031;-74
2023/10/23 01:29:50;;;;;;;0.50;0.50;;;;;;;6.55;100.00;95694.22;1022254;29;20034;-74
2023/10/23 01:30:21;;;;;;;1.05;0.38;;;;;;;6.48;100.00;95684.97;1022636;28;20118;-73
2023/10/23 01:30:51;;;;;;;0.38;0.38;;;;;;;6.47;100.00;95686.00;1022750;29;20034;-74
2023/10/23 01:31:22;;;;;;;0.50;0.50;;;;;;;6.55;100.00;95698.63;1018823;29;20032;-74
2023/10/23 01:31:52;;;;;;;0.40;0.40;;;;;;;6.55;100.00;95693.44;1022680;29;20208;-76
2023/10/23 01:32:23;;;;;;;0.65;0.65;;;;;;;6.50;100.00;95691.50;1026652;28;20031;-74
2023/10/23 01:32:53;;;;;;;0.28;0.28;;;;;;;6.45;100.00;95682.84;1026868;28;20405;-72
2023/10/23 01:33:24;;;;;;;0.10;0.10;;;;;;;6.50;100.00;95695.94;1022586;29;20027;-73
2023/10/23 01:33:55;;;;;;;0.40;0.40;;;;;;;6.42;100.00;95686.72;1022799;29;20030;-74
2023/10/23 01:34:25;;;;;;;0.40;0.40;;;;;;;6.47;100.00;95686.81;1022787;28;20692;-73
2023/10/23 01:34:56;;;;;;;0.73;0.65;;;;;;;6.48;100.00;95690.19;1022916;28;20266;-74
2023/10/23 01:35:26;;;;;;;0.47;0.47;;;;;;;6.40;100.00;95686.16;1022587;28;20027;-75
2023/10/23 01:35:57;;;;;;;7.50;1.20;;;;;;;6.46;100.00;95695.63;1022761;29;20502;-74
2023/10/23 01:36:27;;;;;;;0.32;0.32;;;;;;;6.46;100.00;95687.03;1022688;28;20030;-73
2023/10/23 01:36:58;;;;;;;0.40;0.40;;;;;;;6.45;100.00;95688.84;1018630;29;20023;-73
2023/10/23 01:37:28;;;;;;;8.20;0.70;;;;;;;6.45;100.00;95688.06;1018811;29;20034;-74
2023/10/23 01:37:59;;;;;;;3.33;0.65;;;;;;;6.40;100.00;95680.16;1018657;29;20034;-73
2023/10/23 01:38:29;;;;;;;1.67;0.30;;;;;;;6.43;100.00;95687.50;1014783;29;20031;-73
2023/10/23 01:38:59;;;;;;;0.20;0.20;;;;;;;6.43;100.00;95690.09;1014799;29;20047;-75
2023/10/23 01:39:30;;;;;;;0.40;0.40;;;;;;;6.43;100.00;95684.88;1014760;29;20032;-74
2023/10/23 01:40:00;;;;;;;0.10;0.10;;;;;;;6.41;100.00;95686.97;1014414;29;20444;-72
2023/10/23 01:40:31;;;;;;;0.70;0.47;;;;;;;6.41;100.00;95687.75;1018435;29;20063;-73
2023/10/23 01:41:01;;;;;;;0.03;0.03;;;;;;;6.41;100.00;95692.97;1026584;28;20022;-73
2023/10/23 01:41:32;;;;;;;0.45;0.40;;;;;;;6.40;100.00;95686.16;1026627;28;20034;-74
2023/10/23 01:42:02;;;;;;;0.43;0.43;;;;;;;6.41;100.00;95689.56;1026560;28;20034;-74
2023/10/23 01:42:33;;;;;;;0.57;0.57;;;;;;;6.38;100.00;95686.41;1022586;28;20023;-73
2023/10/23 01:43:03;;;;;;;0.10;0.10;;;;;;;6.40;100.00;95687.97;1026737;28;20026;-73
2023/10/23 01:43:34;;;;;;;0.93;0.43;;;;;;;6.40;100.00;95693.19;1026549;28;20669;-73
2023/10/23 01:44:04;;;;;;;0.28;0.28;;;;;;;6.40;100.00;95685.38;1026577;28;20430;-73
2023/10/23 01:44:35;;;;;;;1.55;0.28;;;;;;;6.37;100.00;95682.22;1022543;28;20110;-73
2023/10/23 01:45:06;;;;;;;0.20;0.20;;;;;;;6.31;100.00;95677.16;1026661;28;20042;-73
2023/10/23 01:45:36;;;;;;;1.40;1.17;;;;;;;6.35;100.00;95681.66;1023643;28;20027;-73
2023/10/23 01:46:07;;;;;;;2.08;1.88;;;;;;;6.35;100.00;95689.47;1018929;29;20363;-75
2023/10/23 01:46:37;;;;;;;0.40;0.40;;;;;;;6.34;100.00;95687.91;1018785;29;20043;-74
2023/10/23 01:47:08;;;;;;;0.30;0.30;;;;;;;6.35;100.00;95688.69;1023942;28;20042;-73
2023/10/23 01:47:38;;;;;;;0.32;0.32;;;;;;;6.33;100.00;95680.31;1026739;28;20026;-73
2023/10/23 01:48:09;;;;;;;0.10;0.10;;;;;;;6.33;100.00;95685.53;1022732;28;20130;-74
2023/10/23 01:48:39;;;;;;;0.10;0.10;;;;;;;6.33;100.00;95685.53;1022502;28;20402;-74
2023/10/23 01:49:10;;;;;;;2.50;1.23;;;;;;;6.31;100.00;95688.38;1022576;29;20164;-74
2023/10/23 01:49:40;;;;;;;0.40;0.40;;;;;;;6.31;100.00;95683.16;1022089;28;20030;-74
2023/10/23 01:50:11;;;;;;;1.15;1.05;;;;;;;6.27;100.00;95679.47;1026673;28;20037;-72
2023/10/23 01:50:41;;;;;;;4.78;0.70;;;;;;;6.29;100.00;95685.19;1026472;28;20039;-74
2023/10/23 01:51:12;;;;;;;0.55;0.55;;;;;;;6.23;100.00;95675.72;1022538;29;20023;-75
2023/10/23 01:51:43;;;;;;;0.00;0.00;;;;;;;6.28;100.00;95678.41;1022888;28;20035;-73
2023/10/23 01:52:14;;;;;;;0.40;0.40;;;;;;;6.15;100.00;95665.69;1031808;28;20485;-74
2023/10/23 01:52:44;;;;;;;0.20;0.20;;;;;;;6.27;100.00;95681.25;1030593;28;20265;-74
2023/10/23 01:53:15;;;;;;;1.10;0.35;;;;;;;6.26;100.00;95685.66;1034337;28;20690;-75
2023/10/23 01:53:45;;;;;;;0.20;0.20;;;;;;;6.26;100.00;95680.47;1030862;28;20077;-73
2023/10/23 01:54:16;;;;;;;0.10;0.10;;;;;;;6.20;100.00;95667.59;1034738;28;20029;-73
2023/10/23 01:54:46;;;;;;;0.10;0.10;;;;;;;6.26;100.00;95682.28;1030622;28;20026;-75
2023/10/23 01:55:17;;;;;;;0.35;0.35;;;;;;;6.24;100.00;95682.53;1030493;28;20404;-73
2023/10/23 01:55:47;;;;;;;1.08;0.98;;;;;;;6.23;100.00;95686.16;1026530;28;20035;-74
2023/10/23 01:56:18;;;;;;;0.20;0.20;;;;;;;6.21;100.00;95688.22;1026543;28;20031;-74
2023/10/23 01:56:48;;;;;;;0.22;0.22;;;;;;;6.21;100.00;95684.81;1026262;28;20030;-74
2023/10/23 01:57:19;;;;;;;0.55;0.25;;;;;;;6.20;100.00;95678.78;1022301;28;20035;-74
2023/10/23 01:57:49;;;;;;;0.52;0.52;;;;;;;6.13;100.00;95672.94;1022533;29;20078;-73
2023/10/23 01:58:19;;;;;;;0.00;0.00;;;;;;;6.19;100.00;95679.84;1026716;28;20160;-74
2023/10/23 01:58:50;;;;;;;0.52;0.43;;;;;;;6.18;100.00;95683.47;1026965;28;20023;-74
2023/10/23 01:59:21;;;;;;;1.08;0.30;;;;;;;6.17;100.00;95681.91;1030296;28;20038;-73
2023/10/23 01:59:52;;;;;;;0.20;0.20;;;;;;;6.10;100.00;95678.63;1026301;28;20027;-75
2023/10/23 02:00:22;;;;;;;0.20;0.20;;;;;;;6.07;100.00;95666.88;1022921;28;20114;-74
2023/10/23 02:00:53;;;;;;;0.57;0.57;;;;;;;6.13;100.00;95686.75;1026640;28;20757;-75
2023/10/23 02:01:23;;;;;;;0.08;0.08;;;;;;;6.12;100.00;95684.41;1026578;28;20027;-72
2023/10/23 02:01:54;;;;;;;0.20;0.20;;;;;;;6.12;100.00;95679.19;1026878;28;20477;-73
2023/10/23 02:02:25;;;;;;;0.45;0.45;;;;;;;6.12;100.00;95689.63;1030771;28;20030;-75
2023/10/23 02:02:55;;;;;;;1.20;0.70;;;;;;;6.13;100.00;95685.97;1030701;28;20038;-73
2023/10/23 02:03:26;;;;;;;0.00;0.00;;;;;;;6.09;100.00;95690.88;1026615;28;20394;-73
2023/10/23 02:03:56;;;;;;;0.30;0.30;;;;;;;6.08;100.00;95691.13;1026617;28;20031;-73
2023/10/23 02:04:27;;;;;;;0.63;0.15;;;;;;;6.07;100.00;95686.91;1022544;29;20039;-75
2023/10/23 02:04:57;;;;;;;0.90;0.65;;;;;;;6.06;100.00;95691.34;1022683;28;20031;-74
2023/10/23 02:05:28;;;;;;;0.52;0.52;;;;;;;6.05;100.00;95688.97;1026654;28;20026;-73
2023/10/23 02:05:58;;;;;;;0.22;0.22;;;;;;;6.02;100.00;95684.25;1022690;28;20107;-73
2023/10/23 02:06:29;;;;;;;0.10;0.10;;;;;;;6.00;100.00;95687.09;1022653;28;20117;-73
2023/10/23 02:07:00;;;;;;;0.30;0.30;;;;;;;5.91;100.00;95673.63;1022824;29;20390;-73
2023/10/23 02:07:30;;;;;;;0.10;0.10;;;;;;;5.98;100.00;95688.34;1022643;28;20027;-74
2023/10/23 02:08:01;;;;;;;0.40;0.30;;;;;;;6.00;100.00;95686.28;1022673;28;20271;-73
2023/10/23 02:08:31;;;;;;;0.65;0.50;;;;;;;5.97;100.00;95687.56;1026541;28;20035;-73
2023/10/23 02:09:02;;;;;;;0.52;0.52;;;;;;;5.96;100.00;95698.19;1025356;28;20031;-74
2023/10/23 02:09:33;;;;;;;0.22;0.22;;;;;;;5.93;100.00;95686.41;1030425;28;20034;-73
2023/10/23 02:10:03;;;;;;;1.20;0.95;;;;;;;5.93;100.00;95690.84;1026158;28;20026;-74
2023/10/23 02:10:34;;;;;;;0.20;0.20;;;;;;;5.93;100.00;95691.63;1026406;28;20031;-74
2023/10/23 02:11:04;;;;;;;3.72;2.05;;;;;;;5.93;100.00;95696.06;1026636;28;20026;-74
2023/10/23 02:11:35;;;;;;;0.50;0.50;;;;;;;5.84;100.00;95683.38;1026390;28;20493;-74
2023/10/23 02:12:06;;;;;;;0.30;0.30;;;;;;;5.90;100.00;95694.66;1022748;29;20046;-72
2023/10/23 02:12:36;;;;;;;0.47;0.47;;;;;;;5.89;100.00;95688.66;1018825;29;20604;-72
2023/10/23 02:13:07;;;;;;;1.27;1.17;;;;;;;5.88;100.00;95692.31;1026559;28;20073;-73
2023/10/23 02:13:37;;;;;;;0.68;0.68;;;;;;;5.86;100.00;95685.75;1022641;29;20035;-76
2023/10/23 02:14:08;;;;;;;0.95;0.95;;;;;;;5.84;100.00;95686.00;1022027;28;20027;-73
2023/10/23 02:14:38;;;;;;;0.10;0.10;;;;;;;5.83;100.00;95689.59;1025641;28;20031;-73
2023/10/23 02:15:10;;;;;;;0.25;0.25;;;;;;;5.81;100.00;95683.84;1030633;28;20030;-73
2023/10/23 02:15:41;;;;;;;0.63;0.63;;;;;;;5.75;100.00;95676.97;1022627;29;20069;-72
2023/10/23 02:16:11;;;;;;;0.28;0.28;;;;;;;5.77;100.00;95676.72;1018525;29;20283;-72
2023/10/23 02:16:41;;;;;;;0.28;0.28;;;;;;;5.81;100.00;95691.66;1014794;29;20393;-73
2023/10/23 02:17:12;;;;;;;0.57;0.57;;;;;;;5.79;100.00;95691.09;1022639;29;20050;-74
2023/10/23 02:17:42;;;;;;;0.52;0.52;;;;;;;5.77;100.00;95693.16;1022812;28;20039;-73
2023/10/23 02:18:13;;;;;;;0.47;0.47;;;;;;;5.77;100.00;95685.34;1026525;28;20510;-73
2023/10/23 02:18:43;;;;;;;0.20;0.20;;;;;;;5.66;100.00;95670.56;1030656;28;20450;-74
2023/10/23 02:19:14;;;;;;;4.13;2.60;;;;;;;5.74;100.00;95688.41;1030722;28;20030;-73
2023/10/23 02:19:45;;;;;;;0.55;0.55;;;;;;;5.73;100.00;95686.03;1029922;28;20037;-73
2023/10/23 02:20:15;;;;;;;1.30;0.50;;;;;;;5.74;100.00;95691.03;1026422;28;20097;-73
2023/10/23 02:20:46;;;;;;;0.15;0.15;;;;;;;5.75;100.00;95691.81;1014608;29;20935;-74
2023/10/23 02:21:16;;;;;;;0.20;0.20;;;;;;;5.73;100.00;95686.03;1014945;29;20032;-74
2023/10/23 02:21:49;;;;;;;1.75;0.93;;;;;;;5.65;100.00;95679.38;1018169;29;20042;-75
2023/10/23 02:22:20;;;;;;;0.52;0.52;;;;;;;5.71;100.00;95694.09;1015855;28;20050;-74
2023/10/23 02:22:50;;;;;;;0.08;0.08;;;;;;;5.72;100.00;95692.28;1025933;28;20277;-74
2023/10/23 02:23:21;;;;;;;1.00;1.00;;;;;;;5.70;100.00;95687.31;1026772;28;20039;-74
2023/10/23 02:23:51;;;;;;;0.20;0.20;;;;;;;5.68;100.00;95684.13;1023080;29;20042;-74